sensor_id;sensor_type;location;lat;lon;timestamp;temperature;humidity
18444;DHT22;9350;53.176;8.194;2023-03-23T00:00:58;11.20;99.90
18444;DHT22;9350;53.176;8.194;2023-03-23T00:03:26;11.20;99.90
18444;DHT22;9350;53.176;8.194;2023-03-23T00:05:54;11.20;99.90
18444;DHT22;9350;53.176;8.194;2023-03-23T00:08:25;11.30;99.90
18444;DHT22;9350;53.176;8.194;2023-03-23T00:10:53;11.30;99.90
18444;DHT22;9350;53.176;8.194;2023-03-23T00:13:22;11.30;99.90
18444;DHT22;9350;53.176;8.194;2023-03-23T00:15:49;11.30;99.90
18444;DHT22;9350;53.176;8.194;2023-03-23T00:18:17;11.30;99.90
18444;DHT22;9350;53.176;8.194;2023-03-23T00:20:48;11.20;99.90
18444;DHT22;9350;53.176;8.194;2023-03-23T00:23:15;11.30;99.90
18444;DHT22;9350;53.176;8.194;2023-03-23T00:25:45;11.20;99.90
18444;DHT22;9350;53.176;8.194;2023-03-23T00:28:14;11.30;99.90
18444;DHT22;9350;53.176;8.194;2023-03-23T00:30:40;11.20;99.90
18444;DHT22;9350;53.176;8.194;2023-03-23T00:33:11;11.30;99.90
18444;DHT22;9350;53.176;8.194;2023-03-23T00:35:39;11.30;99.90
18444;DHT22;9350;53.176;8.194;2023-03-23T00:38:06;11.30;99.90
18444;DHT22;9350;53.176;8.194;2023-03-23T00:40:33;11.30;99.90
18444;DHT22;9350;53.176;8.194;2023-03-23T00:43:01;11.30;99.90
18444;DHT22;9350;53.176;8.194;2023-03-23T00:45:30;11.30;99.90
18444;DHT22;9350;53.176;8.194;2023-03-23T00:48:00;11.30;99.90
18444;DHT22;9350;53.176;8.194;2023-03-23T00:50:29;11.30;99.90
18444;DHT22;9350;53.176;8.194;2023-03-23T00:52:56;11.30;99.90
18444;DHT22;9350;53.176;8.194;2023-03-23T00:55:24;11.30;99.90
18444;DHT22;9350;53.176;8.194;2023-03-23T00:57:51;11.30;99.90
18444;DHT22;9350;53.176;8.194;2023-03-23T01:00:19;11.30;99.90
18444;DHT22;9350;53.176;8.194;2023-03-23T01:02:48;11.30;99.90
18444;DHT22;9350;53.176;8.194;2023-03-23T01:05:16;11.30;99.90
18444;DHT22;9350;53.176;8.194;2023-03-23T01:07:44;11.40;99.90
18444;DHT22;9350;53.176;8.194;2023-03-23T01:10:12;11.40;99.90
18444;DHT22;9350;53.176;8.194;2023-03-23T01:12:42;11.30;99.90
18444;DHT22;9350;53.176;8.194;2023-03-23T01:15:09;11.30;99.90
18444;DHT22;9350;53.176;8.194;2023-03-23T01:17:36;11.30;99.90
18444;DHT22;9350;53.176;8.194;2023-03-23T01:20:05;11.30;99.90
18444;DHT22;9350;53.176;8.194;2023-03-23T01:22:32;11.30;99.90
18444;DHT22;9350;53.176;8.194;2023-03-23T01:24:59;11.40;99.90
18444;DHT22;9350;53.176;8.194;2023-03-23T01:27:26;11.40;99.90
18444;DHT22;9350;53.176;8.194;2023-03-23T01:29:53;11.40;99.90
18444;DHT22;9350;53.176;8.194;2023-03-23T01:32:19;11.40;99.90
18444;DHT22;9350;53.176;8.194;2023-03-23T01:34:46;11.40;99.90
18444;DHT22;9350;53.176;8.194;2023-03-23T01:37:14;11.30;99.90
18444;DHT22;9350;53.176;8.194;2023-03-23T01:39:41;11.40;99.90
18444;DHT22;9350;53.176;8.194;2023-03-23T01:42:08;11.40;99.90
18444;DHT22;9350;53.176;8.194;2023-03-23T01:48:01;11.40;99.90
18444;DHT22;9350;53.176;8.194;2023-03-23T01:50:31;11.40;99.90
18444;DHT22;9350;53.176;8.194;2023-03-23T01:53:02;11.40;99.90
18444;DHT22;9350;53.176;8.194;2023-03-23T01:55:30;11.40;99.90
18444;DHT22;9350;53.176;8.194;2023-03-23T01:57:57;11.40;99.90
18444;DHT22;9350;53.176;8.194;2023-03-23T02:00:24;11.40;99.90
18444;DHT22;9350;53.176;8.194;2023-03-23T02:02:52;11.40;99.90
18444;DHT22;9350;53.176;8.194;2023-03-23T02:05:26;11.40;99.90
18444;DHT22;9350;53.176;8.194;2023-03-23T02:07:57;11.40;99.90
18444;DHT22;9350;53.176;8.194;2023-03-23T02:10:30;11.40;99.90
18444;DHT22;9350;53.176;8.194;2023-03-23T02:12:57;11.40;99.90
18444;DHT22;9350;53.176;8.194;2023-03-23T02:15:26;11.40;99.90
18444;DHT22;9350;53.176;8.194;2023-03-23T02:17:58;11.30;99.90
18444;DHT22;9350;53.176;8.194;2023-03-23T02:23:54;11.40;99.90
18444;DHT22;9350;53.176;8.194;2023-03-23T02:26:38;11.40;99.90
18444;DHT22;9350;53.176;8.194;2023-03-23T02:29:24;11.40;99.90
18444;DHT22;9350;53.176;8.194;2023-03-23T02:32:03;11.40;99.90
18444;DHT22;9350;53.176;8.194;2023-03-23T02:34:38;11.40;99.90
18444;DHT22;9350;53.176;8.194;2023-03-23T02:37:10;11.40;99.90
18444;DHT22;9350;53.176;8.194;2023-03-23T02:39:43;11.40;99.90
18444;DHT22;9350;53.176;8.194;2023-03-23T02:42:15;11.40;99.90
18444;DHT22;9350;53.176;8.194;2023-03-23T02:44:45;11.40;99.90
18444;DHT22;9350;53.176;8.194;2023-03-23T02:47:15;11.30;99.90
18444;DHT22;9350;53.176;8.194;2023-03-23T02:49:48;11.30;99.90
18444;DHT22;9350;53.176;8.194;2023-03-23T02:52:18;11.30;99.90
18444;DHT22;9350;53.176;8.194;2023-03-23T02:54:48;11.30;99.90
18444;DHT22;9350;53.176;8.194;2023-03-23T02:57:15;11.30;99.90
18444;DHT22;9350;53.176;8.194;2023-03-23T02:59:42;11.30;99.90
18444;DHT22;9350;53.176;8.194;2023-03-23T03:02:12;11.30;99.90
18444;DHT22;9350;53.176;8.194;2023-03-23T03:04:42;11.30;99.90
18444;DHT22;9350;53.176;8.194;2023-03-23T03:07:33;11.30;99.90
18444;DHT22;9350;53.176;8.194;2023-03-23T03:10:06;11.30;99.90
18444;DHT22;9350;53.176;8.194;2023-03-23T03:12:43;11.30;99.90
18444;DHT22;9350;53.176;8.194;2023-03-23T03:15:21;11.30;99.90
18444;DHT22;9350;53.176;8.194;2023-03-23T03:17:56;11.30;99.90
18444;DHT22;9350;53.176;8.194;2023-03-23T03:20:26;11.30;99.90
18444;DHT22;9350;53.176;8.194;2023-03-23T03:22:55;11.30;99.90
18444;DHT22;9350;53.176;8.194;2023-03-23T03:25:23;11.30;99.90
18444;DHT22;9350;53.176;8.194;2023-03-23T03:27:53;11.20;99.90
18444;DHT22;9350;53.176;8.194;2023-03-23T03:30:24;11.40;99.90
18444;DHT22;9350;53.176;8.194;2023-03-23T03:32:53;11.30;99.90
18444;DHT22;9350;53.176;8.194;2023-03-23T03:35:21;11.30;99.90
18444;DHT22;9350;53.176;8.194;2023-03-23T03:37:49;11.30;99.90
18444;DHT22;9350;53.176;8.194;2023-03-23T03:40:20;11.30;99.90
18444;DHT22;9350;53.176;8.194;2023-03-23T03:42:48;11.20;99.90
18444;DHT22;9350;53.176;8.194;2023-03-23T03:45:16;11.30;99.90
18444;DHT22;9350;53.176;8.194;2023-03-23T03:47:44;11.30;99.90
18444;DHT22;9350;53.176;8.194;2023-03-23T03:50:11;11.30;99.90
18444;DHT22;9350;53.176;8.194;2023-03-23T03:52:38;11.30;99.90
18444;DHT22;9350;53.176;8.194;2023-03-23T03:55:06;11.30;99.90
18444;DHT22;9350;53.176;8.194;2023-03-23T03:57:34;11.30;99.90
18444;DHT22;9350;53.176;8.194;2023-03-23T04:00:02;11.30;99.90
18444;DHT22;9350;53.176;8.194;2023-03-23T04:02:38;11.40;99.90
18444;DHT22;9350;53.176;8.194;2023-03-23T04:05:06;11.30;99.90
18444;DHT22;9350;53.176;8.194;2023-03-23T04:07:34;11.30;99.90
18444;DHT22;9350;53.176;8.194;2023-03-23T04:10:03;11.30;99.90
18444;DHT22;9350;53.176;8.194;2023-03-23T04:12:30;11.30;99.90
18444;DHT22;9350;53.176;8.194;2023-03-23T04:14:58;11.30;99.90
18444;DHT22;9350;53.176;8.194;2023-03-23T04:17:25;11.30;99.90
18444;DHT22;9350;53.176;8.194;2023-03-23T04:19:52;11.30;99.90
18444;DHT22;9350;53.176;8.194;2023-03-23T04:22:22;11.30;99.90
18444;DHT22;9350;53.176;8.194;2023-03-23T04:24:56;11.30;99.90
18444;DHT22;9350;53.176;8.194;2023-03-23T04:27:24;11.30;99.90
18444;DHT22;9350;53.176;8.194;2023-03-23T04:29:53;11.40;99.90
18444;DHT22;9350;53.176;8.194;2023-03-23T04:32:22;11.30;99.90
18444;DHT22;9350;53.176;8.194;2023-03-23T04:34:50;11.30;99.90
18444;DHT22;9350;53.176;8.194;2023-03-23T04:37:17;11.30;99.90
18444;DHT22;9350;53.176;8.194;2023-03-23T04:39:44;11.30;99.90
18444;DHT22;9350;53.176;8.194;2023-03-23T04:42:11;11.30;99.90
18444;DHT22;9350;53.176;8.194;2023-03-23T04:44:39;11.40;99.90
18444;DHT22;9350;53.176;8.194;2023-03-23T04:47:07;11.30;99.90
18444;DHT22;9350;53.176;8.194;2023-03-23T04:49:36;11.30;99.90
18444;DHT22;9350;53.176;8.194;2023-03-23T04:52:03;11.20;99.90
18444;DHT22;9350;53.176;8.194;2023-03-23T04:54:29;11.20;99.90
18444;DHT22;9350;53.176;8.194;2023-03-23T04:56:56;11.20;99.90
18444;DHT22;9350;53.176;8.194;2023-03-23T04:59:24;11.30;99.90
18444;DHT22;9350;53.176;8.194;2023-03-23T05:01:53;11.30;99.90
18444;DHT22;9350;53.176;8.194;2023-03-23T05:04:21;11.30;99.90
18444;DHT22;9350;53.176;8.194;2023-03-23T05:06:51;11.30;99.90
18444;DHT22;9350;53.176;8.194;2023-03-23T05:09:18;11.30;99.90
18444;DHT22;9350;53.176;8.194;2023-03-23T05:11:46;11.30;99.90
18444;DHT22;9350;53.176;8.194;2023-03-23T05:14:13;11.30;99.90
18444;DHT22;9350;53.176;8.194;2023-03-23T05:16:39;11.30;99.90
18444;DHT22;9350;53.176;8.194;2023-03-23T05:19:06;11.40;99.90
18444;DHT22;9350;53.176;8.194;2023-03-23T05:21:33;11.30;99.90
18444;DHT22;9350;53.176;8.194;2023-03-23T05:24:02;11.30;99.90
18444;DHT22;9350;53.176;8.194;2023-03-23T05:26:29;11.30;99.90
18444;DHT22;9350;53.176;8.194;2023-03-23T05:28:56;11.20;99.90
18444;DHT22;9350;53.176;8.194;2023-03-23T05:31:24;11.20;99.90
18444;DHT22;9350;53.176;8.194;2023-03-23T05:33:51;11.20;99.90
18444;DHT22;9350;53.176;8.194;2023-03-23T05:36:18;11.20;99.90
18444;DHT22;9350;53.176;8.194;2023-03-23T05:38:45;11.20;99.90
18444;DHT22;9350;53.176;8.194;2023-03-23T05:41:14;11.30;99.90
18444;DHT22;9350;53.176;8.194;2023-03-23T05:43:41;11.20;99.90
18444;DHT22;9350;53.176;8.194;2023-03-23T05:46:08;11.20;99.90
18444;DHT22;9350;53.176;8.194;2023-03-23T05:48:34;11.30;99.90
18444;DHT22;9350;53.176;8.194;2023-03-23T05:51:02;11.20;99.90
18444;DHT22;9350;53.176;8.194;2023-03-23T05:53:29;11.20;99.90
18444;DHT22;9350;53.176;8.194;2023-03-23T05:55:58;11.20;99.90
18444;DHT22;9350;53.176;8.194;2023-03-23T05:58:26;11.30;99.90
18444;DHT22;9350;53.176;8.194;2023-03-23T06:00:53;11.20;99.90
18444;DHT22;9350;53.176;8.194;2023-03-23T06:03:20;11.20;99.90
18444;DHT22;9350;53.176;8.194;2023-03-23T06:05:48;11.30;99.90
18444;DHT22;9350;53.176;8.194;2023-03-23T06:08:15;11.30;99.90
18444;DHT22;9350;53.176;8.194;2023-03-23T06:10:42;11.30;99.90
18444;DHT22;9350;53.176;8.194;2023-03-23T06:13:09;11.30;99.90
18444;DHT22;9350;53.176;8.194;2023-03-23T06:15:37;11.40;99.90
18444;DHT22;9350;53.176;8.194;2023-03-23T06:18:04;11.40;99.90
18444;DHT22;9350;53.176;8.194;2023-03-23T06:20:31;11.40;99.90
18444;DHT22;9350;53.176;8.194;2023-03-23T06:22:58;11.40;99.90
18444;DHT22;9350;53.176;8.194;2023-03-23T06:25:25;11.40;99.90
18444;DHT22;9350;53.176;8.194;2023-03-23T06:27:53;11.40;99.90
18444;DHT22;9350;53.176;8.194;2023-03-23T06:30:20;11.40;99.90
18444;DHT22;9350;53.176;8.194;2023-03-23T06:32:48;11.40;99.90
18444;DHT22;9350;53.176;8.194;2023-03-23T06:35:16;11.40;99.90
18444;DHT22;9350;53.176;8.194;2023-03-23T06:37:42;11.30;99.90
18444;DHT22;9350;53.176;8.194;2023-03-23T06:40:09;11.40;99.90
18444;DHT22;9350;53.176;8.194;2023-03-23T06:42:37;11.30;99.90
18444;DHT22;9350;53.176;8.194;2023-03-23T06:45:05;11.30;99.90
18444;DHT22;9350;53.176;8.194;2023-03-23T06:47:32;11.30;99.90
18444;DHT22;9350;53.176;8.194;2023-03-23T06:50:01;11.30;99.90
18444;DHT22;9350;53.176;8.194;2023-03-23T06:52:28;11.30;99.90
18444;DHT22;9350;53.176;8.194;2023-03-23T06:54:55;11.30;99.90
18444;DHT22;9350;53.176;8.194;2023-03-23T06:57:22;11.30;99.90
18444;DHT22;9350;53.176;8.194;2023-03-23T06:59:48;11.30;99.90
18444;DHT22;9350;53.176;8.194;2023-03-23T07:02:15;11.30;99.90
18444;DHT22;9350;53.176;8.194;2023-03-23T07:04:42;11.20;99.90
18444;DHT22;9350;53.176;8.194;2023-03-23T07:07:11;11.20;99.90
18444;DHT22;9350;53.176;8.194;2023-03-23T07:09:40;11.10;99.90
18444;DHT22;9350;53.176;8.194;2023-03-23T07:12:06;11.20;99.90
18444;DHT22;9350;53.176;8.194;2023-03-23T07:14:33;11.20;99.90
18444;DHT22;9350;53.176;8.194;2023-03-23T07:17:00;11.20;99.90
18444;DHT22;9350;53.176;8.194;2023-03-23T07:19:28;11.10;99.90
18444;DHT22;9350;53.176;8.194;2023-03-23T07:21:55;11.10;99.90
18444;DHT22;9350;53.176;8.194;2023-03-23T07:24:23;11.10;99.90
18444;DHT22;9350;53.176;8.194;2023-03-23T07:26:51;11.10;99.90
18444;DHT22;9350;53.176;8.194;2023-03-23T07:29:18;11.10;99.90
18444;DHT22;9350;53.176;8.194;2023-03-23T07:31:45;11.10;99.90
18444;DHT22;9350;53.176;8.194;2023-03-23T07:34:12;11.10;99.90
18444;DHT22;9350;53.176;8.194;2023-03-23T07:36:38;11.10;99.90
18444;DHT22;9350;53.176;8.194;2023-03-23T07:39:05;11.10;99.90
18444;DHT22;9350;53.176;8.194;2023-03-23T07:41:34;11.10;99.90
18444;DHT22;9350;53.176;8.194;2023-03-23T07:44:01;11.20;99.90
18444;DHT22;9350;53.176;8.194;2023-03-23T07:46:27;11.30;99.90
18444;DHT22;9350;53.176;8.194;2023-03-23T07:48:55;11.20;99.90
18444;DHT22;9350;53.176;8.194;2023-03-23T07:51:22;11.20;99.90
18444;DHT22;9350;53.176;8.194;2023-03-23T07:53:49;11.20;99.90
18444;DHT22;9350;53.176;8.194;2023-03-23T07:56:17;11.20;99.90
18444;DHT22;9350;53.176;8.194;2023-03-23T07:58:46;11.30;99.90
18444;DHT22;9350;53.176;8.194;2023-03-23T08:01:13;11.30;99.90
18444;DHT22;9350;53.176;8.194;2023-03-23T08:03:41;11.30;99.90
18444;DHT22;9350;53.176;8.194;2023-03-23T08:06:08;11.40;99.90
18444;DHT22;9350;53.176;8.194;2023-03-23T08:08:35;11.40;99.90
18444;DHT22;9350;53.176;8.194;2023-03-23T08:11:03;11.50;99.90
18444;DHT22;9350;53.176;8.194;2023-03-23T08:13:30;11.50;99.90
18444;DHT22;9350;53.176;8.194;2023-03-23T08:16:00;11.50;99.90
18444;DHT22;9350;53.176;8.194;2023-03-23T08:18:29;11.60;99.90
18444;DHT22;9350;53.176;8.194;2023-03-23T08:20:56;11.60;99.90
18444;DHT22;9350;53.176;8.194;2023-03-23T08:23:22;11.60;99.90
18444;DHT22;9350;53.176;8.194;2023-03-23T08:25:49;11.60;99.90
18444;DHT22;9350;53.176;8.194;2023-03-23T08:28:16;11.60;99.90
18444;DHT22;9350;53.176;8.194;2023-03-23T08:30:43;11.60;99.90
18444;DHT22;9350;53.176;8.194;2023-03-23T08:33:11;11.70;99.90
18444;DHT22;9350;53.176;8.194;2023-03-23T08:35:39;11.70;99.90
18444;DHT22;9350;53.176;8.194;2023-03-23T08:38:06;11.70;99.90
18444;DHT22;9350;53.176;8.194;2023-03-23T08:40:33;11.80;99.90
18444;DHT22;9350;53.176;8.194;2023-03-23T08:43:00;11.80;99.90
18444;DHT22;9350;53.176;8.194;2023-03-23T08:45:27;11.70;99.90
18444;DHT22;9350;53.176;8.194;2023-03-23T08:47:54;11.80;99.90
18444;DHT22;9350;53.176;8.194;2023-03-23T08:50:25;11.70;99.90
18444;DHT22;9350;53.176;8.194;2023-03-23T08:52:53;11.80;99.90
18444;DHT22;9350;53.176;8.194;2023-03-23T08:55:21;11.80;99.90
18444;DHT22;9350;53.176;8.194;2023-03-23T08:57:48;11.90;99.90
18444;DHT22;9350;53.176;8.194;2023-03-23T09:00:18;11.90;99.90
18444;DHT22;9350;53.176;8.194;2023-03-23T09:02:46;12.00;99.90
18444;DHT22;9350;53.176;8.194;2023-03-23T09:05:14;12.00;99.90
18444;DHT22;9350;53.176;8.194;2023-03-23T09:07:44;12.00;99.90
18444;DHT22;9350;53.176;8.194;2023-03-23T09:10:12;12.10;99.90
18444;DHT22;9350;53.176;8.194;2023-03-23T09:12:40;12.10;99.90
18444;DHT22;9350;53.176;8.194;2023-03-23T09:15:08;12.10;99.90
18444;DHT22;9350;53.176;8.194;2023-03-23T09:17:36;12.20;99.90
18444;DHT22;9350;53.176;8.194;2023-03-23T09:20:06;12.20;99.90
18444;DHT22;9350;53.176;8.194;2023-03-23T09:22:36;12.30;99.90
18444;DHT22;9350;53.176;8.194;2023-03-23T09:25:06;12.30;99.90
18444;DHT22;9350;53.176;8.194;2023-03-23T09:27:34;12.30;99.90
18444;DHT22;9350;53.176;8.194;2023-03-23T09:30:02;12.30;99.90
18444;DHT22;9350;53.176;8.194;2023-03-23T09:32:32;12.30;99.90
18444;DHT22;9350;53.176;8.194;2023-03-23T09:34:58;12.30;99.90
18444;DHT22;9350;53.176;8.194;2023-03-23T09:37:26;12.40;99.90
18444;DHT22;9350;53.176;8.194;2023-03-23T09:39:53;12.40;99.90
18444;DHT22;9350;53.176;8.194;2023-03-23T09:42:33;12.40;99.90
18444;DHT22;9350;53.176;8.194;2023-03-23T09:45:11;12.50;99.90
18444;DHT22;9350;53.176;8.194;2023-03-23T09:47:46;12.50;99.90
18444;DHT22;9350;53.176;8.194;2023-03-23T09:50:16;12.50;99.90
18444;DHT22;9350;53.176;8.194;2023-03-23T09:52:50;12.50;99.90
18444;DHT22;9350;53.176;8.194;2023-03-23T09:55:19;12.50;99.90
18444;DHT22;9350;53.176;8.194;2023-03-23T09:57:52;12.50;99.90
18444;DHT22;9350;53.176;8.194;2023-03-23T10:00:25;12.50;99.90
18444;DHT22;9350;53.176;8.194;2023-03-23T10:02:59;12.40;99.90
18444;DHT22;9350;53.176;8.194;2023-03-23T10:05:31;12.40;99.90
18444;DHT22;9350;53.176;8.194;2023-03-23T10:08:00;12.30;99.90
18444;DHT22;9350;53.176;8.194;2023-03-23T10:10:33;12.40;99.90
18444;DHT22;9350;53.176;8.194;2023-03-23T10:13:11;12.40;99.90
18444;DHT22;9350;53.176;8.194;2023-03-23T10:15:39;12.40;99.90
18444;DHT22;9350;53.176;8.194;2023-03-23T10:18:13;12.50;99.90
18444;DHT22;9350;53.176;8.194;2023-03-23T10:20:45;12.40;99.90
18444;DHT22;9350;53.176;8.194;2023-03-23T10:23:24;12.40;99.90
18444;DHT22;9350;53.176;8.194;2023-03-23T10:26:04;12.50;99.90
18444;DHT22;9350;53.176;8.194;2023-03-23T10:28:38;12.50;99.90
18444;DHT22;9350;53.176;8.194;2023-03-23T10:31:10;12.50;99.90
18444;DHT22;9350;53.176;8.194;2023-03-23T10:33:41;12.50;99.90
18444;DHT22;9350;53.176;8.194;2023-03-23T10:36:13;12.70;99.90
18444;DHT22;9350;53.176;8.194;2023-03-23T10:38:45;12.60;99.90
18444;DHT22;9350;53.176;8.194;2023-03-23T10:41:15;12.60;99.90
18444;DHT22;9350;53.176;8.194;2023-03-23T10:43:44;12.60;99.90
18444;DHT22;9350;53.176;8.194;2023-03-23T10:46:22;12.50;99.90
18444;DHT22;9350;53.176;8.194;2023-03-23T10:48:52;12.50;99.90
18444;DHT22;9350;53.176;8.194;2023-03-23T10:51:23;12.50;99.90
18444;DHT22;9350;53.176;8.194;2023-03-23T10:53:57;12.50;99.90
18444;DHT22;9350;53.176;8.194;2023-03-23T10:56:26;12.50;99.90
18444;DHT22;9350;53.176;8.194;2023-03-23T10:58:55;12.60;99.90
18444;DHT22;9350;53.176;8.194;2023-03-23T11:01:30;12.60;99.90
18444;DHT22;9350;53.176;8.194;2023-03-23T11:03:57;12.60;99.90
18444;DHT22;9350;53.176;8.194;2023-03-23T11:06:29;12.50;99.90
18444;DHT22;9350;53.176;8.194;2023-03-23T11:08:58;12.60;99.90
18444;DHT22;9350;53.176;8.194;2023-03-23T11:11:29;12.70;99.90
18444;DHT22;9350;53.176;8.194;2023-03-23T11:13:59;12.70;99.90
18444;DHT22;9350;53.176;8.194;2023-03-23T11:16:28;12.80;99.90
18444;DHT22;9350;53.176;8.194;2023-03-23T11:18:57;12.90;99.90
18444;DHT22;9350;53.176;8.194;2023-03-23T11:21:25;12.90;99.90
18444;DHT22;9350;53.176;8.194;2023-03-23T11:23:54;13.00;99.90
18444;DHT22;9350;53.176;8.194;2023-03-23T11:26:26;13.00;99.90
18444;DHT22;9350;53.176;8.194;2023-03-23T11:28:57;13.00;99.90
18444;DHT22;9350;53.176;8.194;2023-03-23T11:31:29;13.20;99.90
18444;DHT22;9350;53.176;8.194;2023-03-23T11:33:58;13.30;99.90
18444;DHT22;9350;53.176;8.194;2023-03-23T11:36:35;13.30;99.90
18444;DHT22;9350;53.176;8.194;2023-03-23T11:39:03;13.30;99.90
18444;DHT22;9350;53.176;8.194;2023-03-23T11:41:34;13.40;99.90
18444;DHT22;9350;53.176;8.194;2023-03-23T11:44:08;13.50;99.90
18444;DHT22;9350;53.176;8.194;2023-03-23T11:46:44;13.50;99.90
18444;DHT22;9350;53.176;8.194;2023-03-23T11:49:24;13.60;99.90
18444;DHT22;9350;53.176;8.194;2023-03-23T11:51:55;13.60;99.90
18444;DHT22;9350;53.176;8.194;2023-03-23T11:54:29;13.60;99.90
18444;DHT22;9350;53.176;8.194;2023-03-23T11:56:56;13.50;99.90
18444;DHT22;9350;53.176;8.194;2023-03-23T11:59:28;13.60;99.90
18444;DHT22;9350;53.176;8.194;2023-03-23T12:02:04;13.60;99.90
18444;DHT22;9350;53.176;8.194;2023-03-23T12:04:40;13.70;99.90
18444;DHT22;9350;53.176;8.194;2023-03-23T12:07:38;13.90;99.90
18444;DHT22;9350;53.176;8.194;2023-03-23T12:10:17;13.90;99.90
18444;DHT22;9350;53.176;8.194;2023-03-23T12:12:52;14.00;99.90
18444;DHT22;9350;53.176;8.194;2023-03-23T12:15:25;14.10;99.90
18444;DHT22;9350;53.176;8.194;2023-03-23T12:18:00;14.10;99.90
18444;DHT22;9350;53.176;8.194;2023-03-23T12:20:35;14.10;99.90
18444;DHT22;9350;53.176;8.194;2023-03-23T12:23:15;14.00;99.90
18444;DHT22;9350;53.176;8.194;2023-03-23T12:26:01;13.90;99.90
18444;DHT22;9350;53.176;8.194;2023-03-23T12:28:46;13.80;99.90
18444;DHT22;9350;53.176;8.194;2023-03-23T12:31:20;13.50;99.90
18444;DHT22;9350;53.176;8.194;2023-03-23T12:33:58;13.20;99.90
18444;DHT22;9350;53.176;8.194;2023-03-23T12:36:41;12.90;99.90
18444;DHT22;9350;53.176;8.194;2023-03-23T12:39:45;12.90;99.90
18444;DHT22;9350;53.176;8.194;2023-03-23T12:42:22;12.80;99.90
18444;DHT22;9350;53.176;8.194;2023-03-23T12:44:53;12.80;99.90
18444;DHT22;9350;53.176;8.194;2023-03-23T12:47:37;12.80;99.90
18444;DHT22;9350;53.176;8.194;2023-03-23T12:50:13;12.80;99.90
18444;DHT22;9350;53.176;8.194;2023-03-23T12:52:47;12.90;99.90
18444;DHT22;9350;53.176;8.194;2023-03-23T12:55:19;13.10;99.90
18444;DHT22;9350;53.176;8.194;2023-03-23T12:57:51;13.00;99.90
18444;DHT22;9350;53.176;8.194;2023-03-23T13:00:23;13.10;99.90
18444;DHT22;9350;53.176;8.194;2023-03-23T13:02:56;13.10;99.90
18444;DHT22;9350;53.176;8.194;2023-03-23T13:05:36;13.20;99.90
18444;DHT22;9350;53.176;8.194;2023-03-23T13:08:11;13.40;99.90
18444;DHT22;9350;53.176;8.194;2023-03-23T13:10:45;13.50;99.90
18444;DHT22;9350;53.176;8.194;2023-03-23T13:13:16;13.70;99.90
18444;DHT22;9350;53.176;8.194;2023-03-23T13:15:54;13.90;99.90
18444;DHT22;9350;53.176;8.194;2023-03-23T13:18:31;14.00;99.90
18444;DHT22;9350;53.176;8.194;2023-03-23T13:21:09;14.30;99.90
18444;DHT22;9350;53.176;8.194;2023-03-23T13:23:40;14.50;99.90
18444;DHT22;9350;53.176;8.194;2023-03-23T13:26:09;14.70;99.90
18444;DHT22;9350;53.176;8.194;2023-03-23T13:28:49;14.70;99.90
18444;DHT22;9350;53.176;8.194;2023-03-23T13:31:21;14.70;99.90
18444;DHT22;9350;53.176;8.194;2023-03-23T13:33:52;14.70;99.90
18444;DHT22;9350;53.176;8.194;2023-03-23T13:36:27;14.70;99.90
18444;DHT22;9350;53.176;8.194;2023-03-23T13:38:57;14.60;99.90
18444;DHT22;9350;53.176;8.194;2023-03-23T13:41:25;14.50;99.90
18444;DHT22;9350;53.176;8.194;2023-03-23T13:43:53;14.50;99.90
18444;DHT22;9350;53.176;8.194;2023-03-23T13:46:31;14.50;99.90
18444;DHT22;9350;53.176;8.194;2023-03-23T13:49:19;14.40;99.90
18444;DHT22;9350;53.176;8.194;2023-03-23T13:54:51;14.40;99.90
18444;DHT22;9350;53.176;8.194;2023-03-23T13:57:33;14.40;99.90
18444;DHT22;9350;53.176;8.194;2023-03-23T14:00:24;14.40;99.90
18444;DHT22;9350;53.176;8.194;2023-03-23T14:02:52;14.50;99.90
18444;DHT22;9350;53.176;8.194;2023-03-23T14:05:34;14.60;99.90
18444;DHT22;9350;53.176;8.194;2023-03-23T14:08:22;14.70;99.90
18444;DHT22;9350;53.176;8.194;2023-03-23T14:10:52;14.60;99.90
18444;DHT22;9350;53.176;8.194;2023-03-23T14:13:24;14.60;99.90
18444;DHT22;9350;53.176;8.194;2023-03-23T14:15:57;14.60;99.90
18444;DHT22;9350;53.176;8.194;2023-03-23T14:18:30;14.60;99.90
18444;DHT22;9350;53.176;8.194;2023-03-23T14:20:58;14.50;99.90
18444;DHT22;9350;53.176;8.194;2023-03-23T14:23:26;14.40;99.90
18444;DHT22;9350;53.176;8.194;2023-03-23T14:25:58;14.40;99.90
18444;DHT22;9350;53.176;8.194;2023-03-23T14:28:31;14.30;99.90
18444;DHT22;9350;53.176;8.194;2023-03-23T14:30:59;14.20;99.90
18444;DHT22;9350;53.176;8.194;2023-03-23T14:33:26;14.00;99.90
18444;DHT22;9350;53.176;8.194;2023-03-23T14:35:56;13.90;99.90
18444;DHT22;9350;53.176;8.194;2023-03-23T14:38:23;13.60;99.90
18444;DHT22;9350;53.176;8.194;2023-03-23T14:41:00;13.60;99.90
18444;DHT22;9350;53.176;8.194;2023-03-23T14:43:27;13.40;99.90
18444;DHT22;9350;53.176;8.194;2023-03-23T14:45:55;13.40;99.90
18444;DHT22;9350;53.176;8.194;2023-03-23T14:48:23;13.40;99.90
18444;DHT22;9350;53.176;8.194;2023-03-23T14:50:51;13.30;99.90
18444;DHT22;9350;53.176;8.194;2023-03-23T14:53:21;13.30;99.90
18444;DHT22;9350;53.176;8.194;2023-03-23T14:55:49;13.30;99.90
18444;DHT22;9350;53.176;8.194;2023-03-23T14:58:19;13.30;99.90
18444;DHT22;9350;53.176;8.194;2023-03-23T15:00:52;13.30;99.90
18444;DHT22;9350;53.176;8.194;2023-03-23T15:03:22;13.40;99.90
18444;DHT22;9350;53.176;8.194;2023-03-23T15:05:51;13.40;99.90
18444;DHT22;9350;53.176;8.194;2023-03-23T15:08:22;13.40;99.90
18444;DHT22;9350;53.176;8.194;2023-03-23T15:10:57;13.30;99.90
18444;DHT22;9350;53.176;8.194;2023-03-23T15:13:26;13.30;99.90
18444;DHT22;9350;53.176;8.194;2023-03-23T15:16:01;13.30;99.90
18444;DHT22;9350;53.176;8.194;2023-03-23T15:18:35;13.30;99.90
18444;DHT22;9350;53.176;8.194;2023-03-23T15:21:11;13.30;99.90
18444;DHT22;9350;53.176;8.194;2023-03-23T15:23:42;13.40;99.90
18444;DHT22;9350;53.176;8.194;2023-03-23T15:26:32;13.30;99.90
18444;DHT22;9350;53.176;8.194;2023-03-23T15:29:15;13.40;99.90
18444;DHT22;9350;53.176;8.194;2023-03-23T15:31:44;13.40;99.90
18444;DHT22;9350;53.176;8.194;2023-03-23T15:34:16;13.30;99.90
18444;DHT22;9350;53.176;8.194;2023-03-23T15:36:43;13.30;99.90
18444;DHT22;9350;53.176;8.194;2023-03-23T15:39:12;13.30;99.90
18444;DHT22;9350;53.176;8.194;2023-03-23T15:41:46;13.20;99.90
18444;DHT22;9350;53.176;8.194;2023-03-23T15:44:23;13.10;99.90
18444;DHT22;9350;53.176;8.194;2023-03-23T15:46:52;13.10;99.90
18444;DHT22;9350;53.176;8.194;2023-03-23T15:49:25;13.10;99.90
18444;DHT22;9350;53.176;8.194;2023-03-23T15:51:51;13.10;99.90
18444;DHT22;9350;53.176;8.194;2023-03-23T15:54:18;13.10;99.90
18444;DHT22;9350;53.176;8.194;2023-03-23T15:56:45;13.20;99.90
18444;DHT22;9350;53.176;8.194;2023-03-23T15:59:12;13.20;99.90
18444;DHT22;9350;53.176;8.194;2023-03-23T16:01:41;13.20;99.90
18444;DHT22;9350;53.176;8.194;2023-03-23T16:04:12;13.30;99.90
18444;DHT22;9350;53.176;8.194;2023-03-23T16:06:39;13.30;99.90
18444;DHT22;9350;53.176;8.194;2023-03-23T16:09:07;13.30;99.90
18444;DHT22;9350;53.176;8.194;2023-03-23T16:11:36;13.30;99.90
18444;DHT22;9350;53.176;8.194;2023-03-23T16:14:02;13.30;99.90